sensor_id;sensor_type;location;lat;lon;timestamp;P1;durP1;ratioP1;P2;durP2;ratioP2
69629;SDS011;56857;52.212;5.496;2023-07-30T00:01:28;13.35;;;2.90;;
69629;SDS011;56857;52.212;5.496;2023-07-30T00:03:53;8.65;;;2.13;;
69629;SDS011;56857;52.212;5.496;2023-07-30T00:06:18;10.10;;;2.45;;
69629;SDS011;56857;52.212;5.496;2023-07-30T00:08:44;9.68;;;2.40;;
69629;SDS011;56857;52.212;5.496;2023-07-30T00:11:09;13.65;;;2.38;;
69629;SDS011;56857;52.212;5.496;2023-07-30T00:13:35;10.77;;;2.10;;
69629;SDS011;56857;52.212;5.496;2023-07-30T00:16:01;11.00;;;2.80;;
69629;SDS011;56857;52.212;5.496;2023-07-30T00:18:26;12.90;;;2.70;;
69629;SDS011;56857;52.212;5.496;2023-07-30T00:20:52;11.57;;;2.42;;
69629;SDS011;56857;52.212;5.496;2023-07-30T00:23:17;9.68;;;2.60;;
69629;SDS011;56857;52.212;5.496;2023-07-30T00:25:42;7.80;;;2.10;;
69629;SDS011;56857;52.212;5.496;2023-07-30T00:28:08;5.63;;;2.03;;
69629;SDS011;56857;52.212;5.496;2023-07-30T00:30:33;13.80;;;2.63;;
69629;SDS011;56857;52.212;5.496;2023-07-30T00:32:58;8.77;;;2.40;;
69629;SDS011;56857;52.212;5.496;2023-07-30T00:35:24;11.82;;;2.38;;
69629;SDS011;56857;52.212;5.496;2023-07-30T00:37:49;11.20;;;2.72;;
69629;SDS011;56857;52.212;5.496;2023-07-30T00:40:14;11.80;;;2.55;;
69629;SDS011;56857;52.212;5.496;2023-07-30T00:42:40;10.90;;;2.13;;
69629;SDS011;56857;52.212;5.496;2023-07-30T00:45:05;7.57;;;2.23;;
69629;SDS011;56857;52.212;5.496;2023-07-30T00:47:31;10.35;;;3.53;;
69629;SDS011;56857;52.212;5.496;2023-07-30T00:49:56;9.65;;;2.80;;
69629;SDS011;56857;52.212;5.496;2023-07-30T00:52:22;8.77;;;2.35;;
69629;SDS011;56857;52.212;5.496;2023-07-30T00:54:49;10.73;;;2.47;;
69629;SDS011;56857;52.212;5.496;2023-07-30T00:57:15;12.45;;;2.63;;
69629;SDS011;56857;52.212;5.496;2023-07-30T00:59:43;11.18;;;2.58;;
69629;SDS011;56857;52.212;5.496;2023-07-30T01:02:09;10.65;;;2.53;;
69629;SDS011;56857;52.212;5.496;2023-07-30T01:04:35;12.15;;;2.60;;
69629;SDS011;56857;52.212;5.496;2023-07-30T01:07:01;7.70;;;2.70;;
69629;SDS011;56857;52.212;5.496;2023-07-30T01:09:26;9.23;;;2.78;;
69629;SDS011;56857;52.212;5.496;2023-07-30T01:11:51;11.55;;;2.70;;
69629;SDS011;56857;52.212;5.496;2023-07-30T01:14:20;10.20;;;2.88;;
69629;SDS011;56857;52.212;5.496;2023-07-30T01:16:46;10.48;;;2.53;;
69629;SDS011;56857;52.212;5.496;2023-07-30T01:19:12;9.75;;;2.30;;
69629;SDS011;56857;52.212;5.496;2023-07-30T01:21:37;6.95;;;2.33;;
69629;SDS011;56857;52.212;5.496;2023-07-30T01:24:03;10.50;;;2.10;;
69629;SDS011;56857;52.212;5.496;2023-07-30T01:26:40;7.50;;;2.15;;
69629;SDS011;56857;52.212;5.496;2023-07-30T01:29:22;8.75;;;2.45;;
69629;SDS011;56857;52.212;5.496;2023-07-30T01:31:54;10.27;;;2.35;;
69629;SDS011;56857;52.212;5.496;2023-07-30T01:34:22;8.98;;;2.72;;
69629;SDS011;56857;52.212;5.496;2023-07-30T01:36:53;12.07;;;3.28;;
69629;SDS011;56857;52.212;5.496;2023-07-30T01:39:19;7.85;;;2.20;;
69629;SDS011;56857;52.212;5.496;2023-07-30T01:41:45;11.05;;;2.58;;
69629;SDS011;56857;52.212;5.496;2023-07-30T01:44:10;12.77;;;2.80;;
69629;SDS011;56857;52.212;5.496;2023-07-30T01:46:36;11.33;;;2.60;;
69629;SDS011;56857;52.212;5.496;2023-07-30T01:49:01;13.10;;;2.55;;
69629;SDS011;56857;52.212;5.496;2023-07-30T01:51:26;13.87;;;2.53;;
69629;SDS011;56857;52.212;5.496;2023-07-30T01:53:52;11.38;;;2.30;;
69629;SDS011;56857;52.212;5.496;2023-07-30T01:56:17;13.33;;;3.13;;
69629;SDS011;56857;52.212;5.496;2023-07-30T01:58:42;13.13;;;2.95;;
69629;SDS011;56857;52.212;5.496;2023-07-30T02:01:07;9.97;;;2.60;;
69629;SDS011;56857;52.212;5.496;2023-07-30T02:03:33;8.40;;;2.53;;
69629;SDS011;56857;52.212;5.496;2023-07-30T02:05:58;14.15;;;2.92;;
69629;SDS011;56857;52.212;5.496;2023-07-30T02:08:24;12.98;;;3.03;;
69629;SDS011;56857;52.212;5.496;2023-07-30T02:10:58;12.40;;;3.03;;
69629;SDS011;56857;52.212;5.496;2023-07-30T02:13:24;13.27;;;2.92;;
69629;SDS011;56857;52.212;5.496;2023-07-30T02:15:50;11.73;;;3.13;;
69629;SDS011;56857;52.212;5.496;2023-07-30T02:18:15;10.48;;;2.65;;
69629;SDS011;56857;52.212;5.496;2023-07-30T02:20:40;11.73;;;3.00;;
69629;SDS011;56857;52.212;5.496;2023-07-30T02:23:06;12.57;;;2.70;;
69629;SDS011;56857;52.212;5.496;2023-07-30T02:25:31;12.23;;;2.80;;
69629;SDS011;56857;52.212;5.496;2023-07-30T02:27:58;14.30;;;3.00;;
69629;SDS011;56857;52.212;5.496;2023-07-30T02:30:24;18.58;;;2.70;;
69629;SDS011;56857;52.212;5.496;2023-07-30T02:32:50;9.10;;;2.60;;
69629;SDS011;56857;52.212;5.496;2023-07-30T02:35:15;11.98;;;2.78;;
69629;SDS011;56857;52.212;5.496;2023-07-30T02:37:40;11.93;;;2.90;;
69629;SDS011;56857;52.212;5.496;2023-07-30T02:40:06;12.17;;;3.03;;
69629;SDS011;56857;52.212;5.496;2023-07-30T02:42:32;10.32;;;2.58;;
69629;SDS011;56857;52.212;5.496;2023-07-30T02:44:57;11.00;;;2.85;;
69629;SDS011;56857;52.212;5.496;2023-07-30T02:47:22;11.43;;;2.90;;
69629;SDS011;56857;52.212;5.496;2023-07-30T02:49:48;11.32;;;3.10;;
69629;SDS011;56857;52.212;5.496;2023-07-30T02:52:13;10.07;;;2.70;;
69629;SDS011;56857;52.212;5.496;2023-07-30T02:54:38;17.17;;;3.30;;
69629;SDS011;56857;52.212;5.496;2023-07-30T02:57:04;12.20;;;2.75;;
69629;SDS011;56857;52.212;5.496;2023-07-30T02:59:29;14.50;;;3.50;;
69629;SDS011;56857;52.212;5.496;2023-07-30T03:01:55;9.25;;;2.60;;
69629;SDS011;56857;52.212;5.496;2023-07-30T03:04:20;13.40;;;3.25;;
69629;SDS011;56857;52.212;5.496;2023-07-30T03:06:45;14.50;;;3.22;;
69629;SDS011;56857;52.212;5.496;2023-07-30T03:09:11;15.63;;;3.03;;
69629;SDS011;56857;52.212;5.496;2023-07-30T03:11:36;13.35;;;3.35;;
69629;SDS011;56857;52.212;5.496;2023-07-30T03:14:01;11.93;;;2.85;;
69629;SDS011;56857;52.212;5.496;2023-07-30T03:16:26;15.00;;;3.25;;
69629;SDS011;56857;52.212;5.496;2023-07-30T03:18:52;12.38;;;3.40;;
69629;SDS011;56857;52.212;5.496;2023-07-30T03:21:17;16.08;;;3.30;;
69629;SDS011;56857;52.212;5.496;2023-07-30T03:23:42;12.27;;;3.00;;
69629;SDS011;56857;52.212;5.496;2023-07-30T03:26:08;22.92;;;3.25;;
69629;SDS011;56857;52.212;5.496;2023-07-30T03:28:33;10.87;;;3.03;;
69629;SDS011;56857;52.212;5.496;2023-07-30T03:30:58;12.00;;;3.22;;
69629;SDS011;56857;52.212;5.496;2023-07-30T03:33:24;19.30;;;3.97;;
69629;SDS011;56857;52.212;5.496;2023-07-30T03:35:49;19.65;;;3.13;;
69629;SDS011;56857;52.212;5.496;2023-07-30T03:38:14;16.02;;;4.40;;
69629;SDS011;56857;52.212;5.496;2023-07-30T03:40:40;11.50;;;2.90;;
69629;SDS011;56857;52.212;5.496;2023-07-30T03:43:05;19.38;;;4.38;;
69629;SDS011;56857;52.212;5.496;2023-07-30T03:45:30;15.13;;;3.90;;
69629;SDS011;56857;52.212;5.496;2023-07-30T03:47:55;21.17;;;3.92;;
69629;SDS011;56857;52.212;5.496;2023-07-30T03:50:21;13.25;;;3.55;;
69629;SDS011;56857;52.212;5.496;2023-07-30T03:52:46;17.73;;;3.45;;
69629;SDS011;56857;52.212;5.496;2023-07-30T03:55:11;20.25;;;4.05;;
69629;SDS011;56857;52.212;5.496;2023-07-30T03:57:37;19.63;;;4.10;;
69629;SDS011;56857;52.212;5.496;2023-07-30T04:00:03;14.27;;;4.17;;
69629;SDS011;56857;52.212;5.496;2023-07-30T04:02:29;12.82;;;4.05;;
69629;SDS011;56857;52.212;5.496;2023-07-30T04:04:54;17.73;;;4.17;;
69629;SDS011;56857;52.212;5.496;2023-07-30T04:07:19;19.33;;;4.28;;
69629;SDS011;56857;52.212;5.496;2023-07-30T04:09:44;19.17;;;4.10;;
69629;SDS011;56857;52.212;5.496;2023-07-30T04:12:10;16.58;;;3.65;;
69629;SDS011;56857;52.212;5.496;2023-07-30T04:14:35;17.60;;;4.37;;
69629;SDS011;56857;52.212;5.496;2023-07-30T04:17:00;16.27;;;3.97;;
69629;SDS011;56857;52.212;5.496;2023-07-30T04:19:26;20.13;;;3.65;;
69629;SDS011;56857;52.212;5.496;2023-07-30T04:21:51;16.73;;;4.40;;
69629;SDS011;56857;52.212;5.496;2023-07-30T04:24:16;17.45;;;4.93;;
69629;SDS011;56857;52.212;5.496;2023-07-30T04:26:42;16.70;;;4.53;;
69629;SDS011;56857;52.212;5.496;2023-07-30T04:29:07;14.90;;;4.10;;
69629;SDS011;56857;52.212;5.496;2023-07-30T04:31:32;17.42;;;4.68;;
69629;SDS011;56857;52.212;5.496;2023-07-30T04:33:58;19.17;;;4.18;;
69629;SDS011;56857;52.212;5.496;2023-07-30T04:36:23;20.20;;;4.82;;
69629;SDS011;56857;52.212;5.496;2023-07-30T04:38:49;18.65;;;4.85;;
69629;SDS011;56857;52.212;5.496;2023-07-30T04:41:14;22.23;;;4.50;;
69629;SDS011;56857;52.212;5.496;2023-07-30T04:43:39;18.38;;;5.15;;
69629;SDS011;56857;52.212;5.496;2023-07-30T04:46:05;20.70;;;4.82;;
69629;SDS011;56857;52.212;5.496;2023-07-30T04:48:30;24.35;;;4.97;;
69629;SDS011;56857;52.212;5.496;2023-07-30T04:50:55;19.58;;;4.57;;
69629;SDS011;56857;52.212;5.496;2023-07-30T04:53:21;23.73;;;5.55;;
69629;SDS011;56857;52.212;5.496;2023-07-30T04:55:46;22.70;;;4.88;;
69629;SDS011;56857;52.212;5.496;2023-07-30T04:58:11;24.67;;;5.20;;
69629;SDS011;56857;52.212;5.496;2023-07-30T05:00:36;22.65;;;5.03;;
69629;SDS011;56857;52.212;5.496;2023-07-30T05:03:02;20.95;;;4.63;;
69629;SDS011;56857;52.212;5.496;2023-07-30T05:05:27;22.33;;;6.13;;
69629;SDS011;56857;52.212;5.496;2023-07-30T05:07:52;21.87;;;5.83;;
69629;SDS011;56857;52.212;5.496;2023-07-30T05:10:18;16.15;;;5.32;;
69629;SDS011;56857;52.212;5.496;2023-07-30T05:12:43;21.85;;;4.93;;
69629;SDS011;56857;52.212;5.496;2023-07-30T05:15:08;23.20;;;5.43;;
69629;SDS011;56857;52.212;5.496;2023-07-30T05:17:34;21.95;;;5.75;;
69629;SDS011;56857;52.212;5.496;2023-07-30T05:19:59;20.50;;;5.65;;
69629;SDS011;56857;52.212;5.496;2023-07-30T05:22:24;24.30;;;5.40;;
69629;SDS011;56857;52.212;5.496;2023-07-30T05:24:49;18.05;;;5.28;;
69629;SDS011;56857;52.212;5.496;2023-07-30T05:27:15;24.80;;;6.07;;
69629;SDS011;56857;52.212;5.496;2023-07-30T05:29:40;24.60;;;6.10;;
69629;SDS011;56857;52.212;5.496;2023-07-30T05:32:06;28.02;;;6.03;;
69629;SDS011;56857;52.212;5.496;2023-07-30T05:34:31;20.27;;;5.47;;
69629;SDS011;56857;52.212;5.496;2023-07-30T05:36:57;26.80;;;5.70;;
69629;SDS011;56857;52.212;5.496;2023-07-30T05:39:22;24.25;;;5.35;;
69629;SDS011;56857;52.212;5.496;2023-07-30T05:41:47;27.35;;;6.50;;
69629;SDS011;56857;52.212;5.496;2023-07-30T05:44:13;24.38;;;5.35;;
69629;SDS011;56857;52.212;5.496;2023-07-30T05:46:38;21.07;;;6.30;;
69629;SDS011;56857;52.212;5.496;2023-07-30T05:49:03;29.00;;;6.13;;
69629;SDS011;56857;52.212;5.496;2023-07-30T05:51:28;24.25;;;6.32;;
69629;SDS011;56857;52.212;5.496;2023-07-30T05:53:54;24.17;;;6.53;;
69629;SDS011;56857;52.212;5.496;2023-07-30T05:56:19;25.23;;;6.53;;
69629;SDS011;56857;52.212;5.496;2023-07-30T05:58:44;19.80;;;6.57;;
69629;SDS011;56857;52.212;5.496;2023-07-30T06:01:10;25.50;;;6.40;;
69629;SDS011;56857;52.212;5.496;2023-07-30T06:03:35;24.05;;;7.47;;
69629;SDS011;56857;52.212;5.496;2023-07-30T06:06:01;34.97;;;7.00;;
69629;SDS011;56857;52.212;5.496;2023-07-30T06:08:26;18.27;;;6.45;;
69629;SDS011;56857;52.212;5.496;2023-07-30T06:10:52;23.80;;;6.70;;
69629;SDS011;56857;52.212;5.496;2023-07-30T06:13:17;29.92;;;7.13;;
69629;SDS011;56857;52.212;5.496;2023-07-30T06:15:42;22.73;;;7.28;;
69629;SDS011;56857;52.212;5.496;2023-07-30T06:18:08;26.83;;;7.15;;
69629;SDS011;56857;52.212;5.496;2023-07-30T06:20:33;27.77;;;7.05;;
69629;SDS011;56857;52.212;5.496;2023-07-30T06:22:58;19.15;;;7.25;;
69629;SDS011;56857;52.212;5.496;2023-07-30T06:25:24;24.57;;;7.87;;
69629;SDS011;56857;52.212;5.496;2023-07-30T06:27:49;29.95;;;7.57;;
69629;SDS011;56857;52.212;5.496;2023-07-30T06:30:14;28.60;;;8.60;;
69629;SDS011;56857;52.212;5.496;2023-07-30T06:32:40;23.33;;;8.52;;
69629;SDS011;56857;52.212;5.496;2023-07-30T06:35:05;20.42;;;7.60;;
69629;SDS011;56857;52.212;5.496;2023-07-30T06:37:31;20.83;;;8.23;;
69629;SDS011;56857;52.212;5.496;2023-07-30T06:39:56;18.00;;;8.20;;
69629;SDS011;56857;52.212;5.496;2023-07-30T06:42:21;23.93;;;8.43;;
69629;SDS011;56857;52.212;5.496;2023-07-30T06:44:47;25.48;;;7.95;;
69629;SDS011;56857;52.212;5.496;2023-07-30T06:47:12;24.55;;;8.63;;
69629;SDS011;56857;52.212;5.496;2023-07-30T06:49:37;18.97;;;7.83;;
69629;SDS011;56857;52.212;5.496;2023-07-30T06:52:02;25.27;;;8.45;;
69629;SDS011;56857;52.212;5.496;2023-07-30T06:54:29;24.80;;;8.25;;
69629;SDS011;56857;52.212;5.496;2023-07-30T06:56:54;24.00;;;7.47;;
69629;SDS011;56857;52.212;5.496;2023-07-30T06:59:20;25.80;;;8.68;;
69629;SDS011;56857;52.212;5.496;2023-07-30T07:01:45;25.20;;;8.40;;
69629;SDS011;56857;52.212;5.496;2023-07-30T07:04:10;24.23;;;8.32;;
69629;SDS011;56857;52.212;5.496;2023-07-30T07:06:35;22.13;;;7.53;;
69629;SDS011;56857;52.212;5.496;2023-07-30T07:09:01;22.67;;;8.02;;
69629;SDS011;56857;52.212;5.496;2023-07-30T07:11:26;22.05;;;7.65;;
69629;SDS011;56857;52.212;5.496;2023-07-30T07:13:51;22.90;;;7.30;;
69629;SDS011;56857;52.212;5.496;2023-07-30T07:16:17;25.92;;;7.07;;
69629;SDS011;56857;52.212;5.496;2023-07-30T07:18:42;19.73;;;8.38;;
69629;SDS011;56857;52.212;5.496;2023-07-30T07:21:07;23.42;;;6.93;;
69629;SDS011;56857;52.212;5.496;2023-07-30T07:23:33;22.45;;;6.85;;
69629;SDS011;56857;52.212;5.496;2023-07-30T07:25:58;22.23;;;6.75;;
69629;SDS011;56857;52.212;5.496;2023-07-30T07:28:23;26.35;;;6.60;;
69629;SDS011;56857;52.212;5.496;2023-07-30T07:30:49;17.65;;;6.15;;
69629;SDS011;56857;52.212;5.496;2023-07-30T07:33:14;19.10;;;5.93;;
69629;SDS011;56857;52.212;5.496;2023-07-30T07:35:39;24.52;;;6.25;;
69629;SDS011;56857;52.212;5.496;2023-07-30T07:38:05;25.33;;;6.22;;
69629;SDS011;56857;52.212;5.496;2023-07-30T07:40:35;21.50;;;6.15;;
69629;SDS011;56857;52.212;5.496;2023-07-30T07:43:01;15.80;;;5.30;;
69629;SDS011;56857;52.212;5.496;2023-07-30T07:45:26;21.00;;;5.30;;
69629;SDS011;56857;52.212;5.496;2023-07-30T07:47:52;19.73;;;4.73;;
69629;SDS011;56857;52.212;5.496;2023-07-30T07:50:17;19.80;;;4.72;;
69629;SDS011;56857;52.212;5.496;2023-07-30T07:52:42;22.58;;;5.53;;
69629;SDS011;56857;52.212;5.496;2023-07-30T07:55:07;20.40;;;5.45;;
69629;SDS011;56857;52.212;5.496;2023-07-30T07:57:33;15.05;;;4.22;;
69629;SDS011;56857;52.212;5.496;2023-07-30T07:59:58;15.60;;;4.10;;
69629;SDS011;56857;52.212;5.496;2023-07-30T08:02:23;19.90;;;4.70;;
69629;SDS011;56857;52.212;5.496;2023-07-30T08:04:49;21.10;;;4.90;;
69629;SDS011;56857;52.212;5.496;2023-07-30T08:07:14;20.52;;;3.80;;
69629;SDS011;56857;52.212;5.496;2023-07-30T08:09:39;19.33;;;4.37;;
69629;SDS011;56857;52.212;5.496;2023-07-30T08:12:05;20.23;;;4.85;;
69629;SDS011;56857;52.212;5.496;2023-07-30T08:14:30;19.67;;;4.38;;
69629;SDS011;56857;52.212;5.496;2023-07-30T08:16:56;14.57;;;4.18;;
69629;SDS011;56857;52.212;5.496;2023-07-30T08:19:21;14.53;;;4.43;;
69629;SDS011;56857;52.212;5.496;2023-07-30T08:21:46;18.05;;;4.53;;
69629;SDS011;56857;52.212;5.496;2023-07-30T08:24:11;16.53;;;3.90;;
69629;SDS011;56857;52.212;5.496;2023-07-30T08:26:37;15.20;;;4.63;;
69629;SDS011;56857;52.212;5.496;2023-07-30T08:29:02;15.10;;;4.18;;
69629;SDS011;56857;52.212;5.496;2023-07-30T08:31:27;17.60;;;4.33;;
69629;SDS011;56857;52.212;5.496;2023-07-30T08:33:53;20.83;;;4.38;;
69629;SDS011;56857;52.212;5.496;2023-07-30T08:36:18;15.07;;;4.35;;
69629;SDS011;56857;52.212;5.496;2023-07-30T08:38:43;14.48;;;4.63;;
69629;SDS011;56857;52.212;5.496;2023-07-30T08:41:09;18.73;;;4.95;;
69629;SDS011;56857;52.212;5.496;2023-07-30T08:43:34;20.88;;;5.80;;
69629;SDS011;56857;52.212;5.496;2023-07-30T08:46:00;14.00;;;4.90;;
69629;SDS011;56857;52.212;5.496;2023-07-30T08:48:25;13.98;;;4.65;;
69629;SDS011;56857;52.212;5.496;2023-07-30T08:50:51;14.77;;;4.65;;
69629;SDS011;56857;52.212;5.496;2023-07-30T08:53:21;20.55;;;5.32;;
69629;SDS011;56857;52.212;5.496;2023-07-30T08:55:47;13.68;;;4.45;;
69629;SDS011;56857;52.212;5.496;2023-07-30T08:58:12;16.25;;;5.03;;
69629;SDS011;56857;52.212;5.496;2023-07-30T09:00:39;16.35;;;4.40;;
69629;SDS011;56857;52.212;5.496;2023-07-30T09:03:06;16.33;;;4.35;;
69629;SDS011;56857;52.212;5.496;2023-07-30T09:05:33;17.08;;;4.75;;
69629;SDS011;56857;52.212;5.496;2023-07-30T09:07:58;15.07;;;4.30;;
69629;SDS011;56857;52.212;5.496;2023-07-30T09:10:23;14.15;;;4.15;;
69629;SDS011;56857;52.212;5.496;2023-07-30T09:12:54;15.35;;;4.32;;
69629;SDS011;56857;52.212;5.496;2023-07-30T09:15:28;15.73;;;4.53;;
69629;SDS011;56857;52.212;5.496;2023-07-30T09:17:55;13.98;;;4.15;;
69629;SDS011;56857;52.212;5.496;2023-07-30T09:20:20;12.18;;;3.67;;
69629;SDS011;56857;52.212;5.496;2023-07-30T09:22:46;13.70;;;3.70;;
69629;SDS011;56857;52.212;5.496;2023-07-30T09:25:11;14.13;;;3.30;;
69629;SDS011;56857;52.212;5.496;2023-07-30T09:27:36;14.38;;;3.45;;
69629;SDS011;56857;52.212;5.496;2023-07-30T09:30:02;11.65;;;3.15;;
69629;SDS011;56857;52.212;5.496;2023-07-30T09:32:29;17.30;;;3.55;;
69629;SDS011;56857;52.212;5.496;2023-07-30T09:34:55;13.70;;;3.00;;
69629;SDS011;56857;52.212;5.496;2023-07-30T09:37:28;12.38;;;3.00;;
69629;SDS011;56857;52.212;5.496;2023-07-30T09:39:54;13.00;;;2.95;;
69629;SDS011;56857;52.212;5.496;2023-07-30T09:42:26;14.93;;;2.78;;
69629;SDS011;56857;52.212;5.496;2023-07-30T09:44:51;13.43;;;3.25;;
69629;SDS011;56857;52.212;5.496;2023-07-30T09:47:17;16.70;;;3.20;;
69629;SDS011;56857;52.212;5.496;2023-07-30T09:49:42;16.88;;;3.00;;
69629;SDS011;56857;52.212;5.496;2023-07-30T09:52:07;14.43;;;3.13;;
69629;SDS011;56857;52.212;5.496;2023-07-30T09:54:33;11.18;;;2.42;;
69629;SDS011;56857;52.212;5.496;2023-07-30T09:56:58;11.85;;;2.30;;
69629;SDS011;56857;52.212;5.496;2023-07-30T09:59:23;10.18;;;2.40;;
69629;SDS011;56857;52.212;5.496;2023-07-30T10:01:49;13.82;;;2.03;;
69629;SDS011;56857;52.212;5.496;2023-07-30T10:04:15;11.50;;;2.03;;
69629;SDS011;56857;52.212;5.496;2023-07-30T10:06:55;9.45;;;2.45;;
69629;SDS011;56857;52.212;5.496;2023-07-30T10:09:24;8.63;;;1.70;;
69629;SDS011;56857;52.212;5.496;2023-07-30T10:11:52;12.45;;;1.90;;
69629;SDS011;56857;52.212;5.496;2023-07-30T10:14:19;9.60;;;1.95;;
69629;SDS011;56857;52.212;5.496;2023-07-30T10:16:51;11.25;;;2.17;;
69629;SDS011;56857;52.212;5.496;2023-07-30T10:19:18;9.93;;;2.28;;
69629;SDS011;56857;52.212;5.496;2023-07-30T10:21:47;12.48;;;2.15;;
69629;SDS011;56857;52.212;5.496;2023-07-30T10:24:12;9.37;;;2.03;;
69629;SDS011;56857;52.212;5.496;2023-07-30T10:26:38;12.68;;;2.30;;
69629;SDS011;56857;52.212;5.496;2023-07-30T10:31:49;15.50;;;2.67;;
69629;SDS011;56857;52.212;5.496;2023-07-30T10:34:18;13.32;;;2.70;;
69629;SDS011;56857;52.212;5.496;2023-07-30T10:36:44;11.57;;;2.22;;
69629;SDS011;56857;52.212;5.496;2023-07-30T10:39:13;13.00;;;2.63;;
69629;SDS011;56857;52.212;5.496;2023-07-30T10:42:02;12.43;;;2.42;;
69629;SDS011;56857;52.212;5.496;2023-07-30T10:44:28;12.27;;;3.00;;
69629;SDS011;56857;52.212;5.496;2023-07-30T10:46:56;7.50;;;2.00;;
69629;SDS011;56857;52.212;5.496;2023-07-30T10:49:22;8.40;;;1.75;;
69629;SDS011;56857;52.212;5.496;2023-07-30T10:51:48;11.52;;;2.15;;
69629;SDS011;56857;52.212;5.496;2023-07-30T10:54:15;8.75;;;1.75;;
69629;SDS011;56857;52.212;5.496;2023-07-30T10:56:41;6.32;;;1.50;;
69629;SDS011;56857;52.212;5.496;2023-07-30T10:59:07;5.53;;;1.20;;
69629;SDS011;56857;52.212;5.496;2023-07-30T11:01:36;10.60;;;1.88;;
69629;SDS011;56857;52.212;5.496;2023-07-30T11:04:05;8.23;;;1.58;;
69629;SDS011;56857;52.212;5.496;2023-07-30T11:06:31;10.70;;;2.10;;
69629;SDS011;56857;52.212;5.496;2023-07-30T11:08:57;7.73;;;1.97;;
69629;SDS011;56857;52.212;5.496;2023-07-30T11:11:22;6.80;;;1.80;;
69629;SDS011;56857;52.212;5.496;2023-07-30T11:13:47;8.90;;;2.10;;
69629;SDS011;56857;52.212;5.496;2023-07-30T11:16:13;9.17;;;2.00;;
69629;SDS011;56857;52.212;5.496;2023-07-30T11:18:40;8.55;;;1.50;;
69629;SDS011;56857;52.212;5.496;2023-07-30T11:21:06;9.90;;;1.65;;
69629;SDS011;56857;52.212;5.496;2023-07-30T11:23:33;9.75;;;1.85;;
69629;SDS011;56857;52.212;5.496;2023-07-30T11:26:03;6.50;;;1.50;;
69629;SDS011;56857;52.212;5.496;2023-07-30T11:28:32;8.80;;;1.90;;
69629;SDS011;56857;52.212;5.496;2023-07-30T11:30:58;9.43;;;2.03;;
69629;SDS011;56857;52.212;5.496;2023-07-30T11:33:28;8.95;;;1.85;;
69629;SDS011;56857;52.212;5.496;2023-07-30T11:35:54;7.82;;;1.73;;
69629;SDS011;56857;52.212;5.496;2023-07-30T11:38:21;9.45;;;1.80;;
69629;SDS011;56857;52.212;5.496;2023-07-30T11:40:47;11.27;;;1.88;;
69629;SDS011;56857;52.212;5.496;2023-07-30T11:43:13;14.27;;;2.50;;
69629;SDS011;56857;52.212;5.496;2023-07-30T11:45:38;9.50;;;2.08;;
69629;SDS011;56857;52.212;5.496;2023-07-30T11:48:07;8.13;;;1.90;;
69629;SDS011;56857;52.212;5.496;2023-07-30T11:50:47;7.05;;;1.75;;
69629;SDS011;56857;52.212;5.496;2023-07-30T11:53:17;9.98;;;1.80;;
69629;SDS011;56857;52.212;5.496;2023-07-30T11:55:43;8.52;;;1.60;;
69629;SDS011;56857;52.212;5.496;2023-07-30T11:58:09;8.75;;;1.75;;
69629;SDS011;56857;52.212;5.496;2023-07-30T12:00:36;11.57;;;1.75;;
69629;SDS011;56857;52.212;5.496;2023-07-30T12:03:03;9.55;;;1.70;;
69629;SDS011;56857;52.212;5.496;2023-07-30T12:05:33;7.15;;;1.50;;
69629;SDS011;56857;52.212;5.496;2023-07-30T12:08:00;5.95;;;1.67;;
69629;SDS011;56857;52.212;5.496;2023-07-30T12:10:40;8.13;;;1.38;;
69629;SDS011;56857;52.212;5.496;2023-07-30T12:13:41;8.10;;;1.70;;
69629;SDS011;56857;52.212;5.496;2023-07-30T12:15:58;9.07;;;2.00;;
69629;SDS011;56857;52.212;5.496;2023-07-30T12:18:24;8.70;;;2.03;;
69629;SDS011;56857;52.212;5.496;2023-07-30T12:20:50;10.80;;;1.83;;
69629;SDS011;56857;52.212;5.496;2023-07-30T12:23:16;8.32;;;1.80;;
69629;SDS011;56857;52.212;5.496;2023-07-30T12:25:42;8.82;;;2.00;;
69629;SDS011;56857;52.212;5.496;2023-07-30T12:28:07;9.93;;;1.60;;
69629;SDS011;56857;52.212;5.496;2023-07-30T12:30:33;7.93;;;1.83;;
69629;SDS011;56857;52.212;5.496;2023-07-30T12:32:58;8.68;;;1.92;;
69629;SDS011;56857;52.212;5.496;2023-07-30T12:35:23;7.20;;;1.23;;
69629;SDS011;56857;52.212;5.496;2023-07-30T12:37:49;8.90;;;1.65;;
69629;SDS011;56857;52.212;5.496;2023-07-30T12:40:14;6.70;;;1.40;;
69629;SDS011;56857;52.212;5.496;2023-07-30T12:42:40;7.57;;;1.65;;
69629;SDS011;56857;52.212;5.496;2023-07-30T12:45:06;5.97;;;1.70;;
69629;SDS011;56857;52.212;5.496;2023-07-30T12:47:32;7.63;;;1.60;;
69629;SDS011;56857;52.212;5.496;2023-07-30T12:49:57;6.45;;;1.63;;
69629;SDS011;56857;52.212;5.496;2023-07-30T12:52:22;5.45;;;1.25;;
69629;SDS011;56857;52.212;5.496;2023-07-30T12:54:48;6.57;;;1.40;;
69629;SDS011;56857;52.212;5.496;2023-07-30T12:57:13;7.93;;;1.70;;
69629;SDS011;56857;52.212;5.496;2023-07-30T12:59:38;7.03;;;1.55;;
69629;SDS011;56857;52.212;5.496;2023-07-30T13:02:04;9.03;;;1.80;;
69629;SDS011;56857;52.212;5.496;2023-07-30T13:04:29;6.97;;;1.38;;
69629;SDS011;56857;52.212;5.496;2023-07-30T13:06:54;4.88;;;1.40;;
69629;SDS011;56857;52.212;5.496;2023-07-30T13:09:20;8.45;;;1.50;;
69629;SDS011;56857;52.212;5.496;2023-07-30T13:11:45;5.35;;;1.25;;
69629;SDS011;56857;52.212;5.496;2023-07-30T13:14:11;5.20;;;1.40;;
69629;SDS011;56857;52.212;5.496;2023-07-30T13:16:36;6.63;;;1.52;;
69629;SDS011;56857;52.212;5.496;2023-07-30T13:19:02;4.85;;;1.33;;
69629;SDS011;56857;52.212;5.496;2023-07-30T13:21:27;5.10;;;1.08;;
69629;SDS011;56857;52.212;5.496;2023-07-30T13:23:52;7.57;;;1.17;;
69629;SDS011;56857;52.212;5.496;2023-07-30T13:26:18;5.50;;;1.42;;
69629;SDS011;56857;52.212;5.496;2023-07-30T13:28:43;5.00;;;1.20;;
69629;SDS011;56857;52.212;5.496;2023-07-30T13:31:08;4.67;;;1.20;;
69629;SDS011;56857;52.212;5.496;2023-07-30T13:33:34;7.65;;;1.38;;
69629;SDS011;56857;52.212;5.496;2023-07-30T13:35:59;10.82;;;1.80;;
69629;SDS011;56857;52.212;5.496;2023-07-30T13:38:24;4.80;;;1.40;;
69629;SDS011;56857;52.212;5.496;2023-07-30T13:40:49;8.60;;;1.45;;
69629;SDS011;56857;52.212;5.496;2023-07-30T13:43:15;7.38;;;1.50;;
69629;SDS011;56857;52.212;5.496;2023-07-30T13:45:40;6.32;;;1.30;;
69629;SDS011;56857;52.212;5.496;2023-07-30T13:48:05;5.70;;;1.40;;
69629;SDS011;56857;52.212;5.496;2023-07-30T13:50:31;5.43;;;1.52;;
69629;SDS011;56857;52.212;5.496;2023-07-30T13:52:56;6.60;;;1.30;;
69629;SDS011;56857;52.212;5.496;2023-07-30T13:55:21;7.10;;;1.35;;
69629;SDS011;56857;52.212;5.496;2023-07-30T13:57:47;6.35;;;1.50;;
69629;SDS011;56857;52.212;5.496;2023-07-30T14:00:12;9.02;;;1.73;;
69629;SDS011;56857;52.212;5.496;2023-07-30T14:02:38;8.45;;;1.55;;
69629;SDS011;56857;52.212;5.496;2023-07-30T14:05:03;10.45;;;2.50;;
69629;SDS011;56857;52.212;5.496;2023-07-30T14:07:28;9.35;;;1.67;;
69629;SDS011;56857;52.212;5.496;2023-07-30T14:09:53;8.30;;;1.40;;
69629;SDS011;56857;52.212;5.496;2023-07-30T14:12:19;8.45;;;1.83;;
69629;SDS011;56857;52.212;5.496;2023-07-30T14:14:44;7.90;;;1.80;;
69629;SDS011;56857;52.212;5.496;2023-07-30T14:17:09;7.70;;;1.60;;
69629;SDS011;56857;52.212;5.496;2023-07-30T14:19:34;7.97;;;1.70;;
69629;SDS011;56857;52.212;5.496;2023-07-30T14:22:00;10.23;;;1.40;;
69629;SDS011;56857;52.212;5.496;2023-07-30T14:24:25;9.77;;;1.70;;
69629;SDS011;56857;52.212;5.496;2023-07-30T14:26:51;7.18;;;1.70;;
69629;SDS011;56857;52.212;5.496;2023-07-30T14:29:16;8.23;;;1.65;;
69629;SDS011;56857;52.212;5.496;2023-07-30T14:31:42;8.53;;;1.70;;
69629;SDS011;56857;52.212;5.496;2023-07-30T14:34:07;5.90;;;1.23;;